Aeroporto :
LOGIN :

Iscrizione | Disclaimer

   EN    FR    IT 

 










Sommario :    VFR   VFR Marginale   IFR   IFR Intensivo   IFR Molto Intensivo
Visibilità : 
Base nubi : 
>= 8 km
>= 3000ft
5 / 8 km
1000 / 3000 ft
1500m / 5 km
500 / 1000 ft
800 / 1500m
200 / 500 ft
< 800m
< 200 ft
Simboli :   Temporali  Nebbia  Neve Forte  Precipitazioni Forti  Vento > 20 kt
SIGMETs :   Varie  Temporali  Ghiacco  Turbolenza  Onda orograficha  Ceneri Vulcaniche






- Altitudine del aeroporto : 598 ft
- Codice IATA : BQH


EGKB - Biggin Hill

ULTIMO METAR :
  • 012050Z 33004KT 300V010 9999 BKN040 06/M02 Q1020

METARs OBSOLETI :
  • 012020Z 34004KT 9999 BKN040 06/M02 Q1020
  • 011950Z 33006KT 9999 BKN040 06/M02 Q1020
  • 011920Z 33006KT 9999 BKN040 06/M01 Q1020
  • 011850Z 30007KT 260V330 9999 BKN045 06/M02 Q1020
  • 011820Z 31005KT 280V350 9999 BKN045 06/M01 Q1020

TAF TAF EGKB
Valido dal 01 a 18 ore il 01 a 22 ore UTC


011702Z 0118/0122 29005KT 9999 BKN040



MetMap, La meteo Aeronautica in un colpo d'occhio ! - Copyright ORBIFLY Dicembre 2007 - Disclaimer

ORBIFLY MET'MAP TEAM :

Programmazione e sviluppo : Alexandra Zaïnal
Concezione : Baudouin d'Aumeries
Aiuto per la programmazione : Marc-Olivier Méhu
Supporto tecnico e logistico : Manuel Goepfert
Aiuto per la traduzione : Arnaldo La Scala

Contatto : metmap@orbifly.com




FONTI E CREDITI :

   NOAA